createdAt,value
2023-03-07T00:00:04.249Z,94.10
2023-03-07T00:01:04.220Z,94.10
2023-03-07T00:02:04.191Z,94.10
2023-03-07T00:03:04.245Z,94.10
2023-03-07T00:04:04.213Z,94.10
2023-03-07T00:05:04.158Z,94.10
2023-03-07T00:06:04.158Z,94.00
2023-03-07T00:07:04.117Z,94.00
2023-03-07T00:08:04.100Z,93.79
2023-03-07T00:09:04.359Z,93.65
2023-03-07T00:10:04.105Z,93.54
2023-03-07T00:11:04.109Z,93.33
2023-03-07T00:12:04.133Z,93.12
2023-03-07T00:13:04.067Z,93.02
2023-03-07T00:14:04.044Z,93.02
2023-03-07T00:15:04.083Z,93.02
2023-03-07T00:16:04.086Z,93.02
2023-03-07T00:17:04.275Z,92.91
2023-03-07T00:18:04.151Z,92.81
2023-03-07T00:19:03.966Z,92.46
2023-03-07T00:20:03.988Z,92.46
2023-03-07T00:21:03.989Z,92.60
2023-03-07T00:22:03.950Z,92.56
2023-03-07T00:23:03.961Z,92.46
2023-03-07T00:24:04.308Z,92.46
2023-03-07T00:25:03.954Z,92.35
2023-03-07T00:26:03.906Z,92.35
2023-03-07T00:27:03.950Z,92.35
2023-03-07T00:28:03.859Z,92.25
2023-03-07T00:29:03.868Z,92.35
2023-03-07T00:30:03.936Z,92.25
2023-03-07T00:31:03.876Z,92.35
2023-03-07T00:32:03.842Z,92.14
2023-03-07T00:33:03.874Z,92.25
2023-03-07T00:34:03.809Z,92.14
2023-03-07T00:35:03.758Z,92.25
2023-03-07T00:36:03.761Z,92.46
2023-03-07T00:37:04.633Z,92.46
2023-03-07T00:38:03.773Z,92.46
2023-03-07T00:39:03.810Z,92.46
2023-03-07T00:40:03.710Z,92.56
2023-03-07T00:41:03.702Z,92.56
2023-03-07T00:42:03.699Z,92.66
2023-03-07T00:43:03.675Z,92.66
2023-03-07T00:44:03.677Z,92.66
2023-03-07T00:45:03.698Z,92.66
2023-03-07T00:46:03.715Z,92.56
2023-03-07T00:47:03.651Z,92.56
2023-03-07T00:48:03.607Z,92.66
2023-03-07T00:49:03.721Z,92.66
2023-03-07T00:50:03.605Z,92.87
2023-03-07T00:51:03.589Z,92.87
2023-03-07T00:52:03.584Z,92.87
2023-03-07T00:53:03.568Z,92.77
2023-03-07T00:54:03.573Z,92.87
2023-03-07T00:55:04.438Z,92.77
2023-03-07T00:56:03.713Z,92.87
2023-03-07T00:57:03.549Z,92.97
2023-03-07T00:58:04.667Z,92.97
2023-03-07T00:59:03.707Z,93.08
2023-03-07T01:00:03.569Z,92.97
2023-03-07T01:01:03.571Z,93.18
2023-03-07T01:02:03.436Z,93.08
2023-03-07T01:03:03.464Z,93.18
2023-03-07T01:04:03.549Z,93.29
2023-03-07T01:05:03.407Z,93.29
2023-03-07T01:06:03.413Z,93.40
2023-03-07T01:07:03.394Z,93.40
2023-03-07T01:08:03.803Z,93.29
2023-03-07T01:09:03.398Z,93.46
2023-03-07T01:10:03.348Z,93.50
2023-03-07T01:11:03.336Z,93.60
2023-03-07T01:12:03.316Z,93.60
2023-03-07T01:13:03.317Z,93.81
2023-03-07T01:14:04.144Z,94.02
2023-03-07T01:15:03.316Z,94.12
2023-03-07T01:16:03.257Z,94.33
2023-03-07T01:17:03.284Z,94.54
2023-03-07T01:18:03.255Z,94.75
2023-03-07T01:19:03.242Z,94.96
2023-03-07T01:20:03.228Z,95.17
2023-03-07T01:21:03.259Z,95.27
2023-03-07T01:22:03.171Z,95.48
2023-03-07T01:23:03.182Z,95.68
2023-03-07T01:24:03.161Z,95.94
2023-03-07T01:25:03.135Z,96.25
2023-03-07T01:26:03.518Z,96.46
2023-03-07T01:27:03.155Z,96.67
2023-03-07T01:28:03.119Z,96.88
2023-03-07T01:29:03.114Z,97.09
2023-03-07T01:30:03.094Z,97.30
2023-03-07T01:31:03.097Z,97.40
2023-03-07T01:32:03.170Z,97.61
2023-03-07T01:33:03.189Z,97.86
2023-03-07T01:34:03.062Z,98.07
2023-03-07T01:35:03.026Z,98.18
2023-03-07T01:36:03.155Z,98.28
2023-03-07T01:37:03.009Z,98.49
2023-03-07T01:38:03.987Z,98.49
2023-03-07T01:39:02.998Z,98.59
2023-03-07T01:40:04.225Z,98.69
2023-03-07T01:41:02.949Z,98.80
2023-03-07T01:42:02.950Z,98.90
2023-03-07T01:43:02.962Z,99.01
2023-03-07T01:44:02.940Z,99.01
2023-03-07T01:45:03.007Z,99.11
2023-03-07T01:46:02.989Z,99.11
2023-03-07T01:47:02.887Z,99.22
2023-03-07T01:48:02.883Z,99.22
2023-03-07T01:49:02.878Z,99.32
2023-03-07T01:50:02.888Z,99.43
2023-03-07T01:51:02.966Z,99.43
2023-03-07T01:52:02.828Z,99.53
2023-03-07T01:53:02.823Z,99.53
2023-03-07T01:54:02.820Z,99.53
2023-03-07T01:55:02.798Z,99.53
2023-03-07T01:56:02.755Z,99.63
2023-03-07T01:57:02.836Z,99.63
2023-03-07T01:58:02.712Z,99.74
2023-03-07T01:59:02.721Z,99.84
2023-03-07T02:00:02.774Z,99.95
2023-03-07T02:01:02.795Z,99.95
2023-03-07T02:02:02.720Z,99.95
2023-03-07T02:03:02.688Z,99.95
2023-03-07T02:04:02.712Z,99.99
2023-03-07T02:05:02.684Z,99.99
2023-03-07T02:06:02.977Z,99.99
2023-03-07T02:07:02.646Z,99.99
2023-03-07T02:08:02.619Z,99.99
2023-03-07T02:09:02.627Z,99.99
2023-03-07T02:10:03.552Z,99.99
2023-03-07T02:11:02.592Z,99.99
2023-03-07T02:12:02.575Z,99.99
2023-03-07T02:13:02.568Z,99.99
2023-03-07T02:14:02.525Z,99.90
2023-03-07T02:15:02.572Z,99.90
2023-03-07T02:16:02.525Z,99.90
2023-03-07T02:17:02.517Z,99.90
2023-03-07T02:18:02.635Z,99.90
2023-03-07T02:19:02.486Z,99.85
2023-03-07T02:20:02.474Z,99.75
2023-03-07T02:21:02.506Z,99.75
2023-03-07T02:22:02.463Z,99.85
2023-03-07T02:23:02.484Z,99.75
2023-03-07T02:24:02.433Z,99.75
2023-03-07T02:25:02.410Z,99.75
2023-03-07T02:26:02.368Z,99.75
2023-03-07T02:27:02.377Z,99.75
2023-03-07T02:28:02.382Z,99.75
2023-03-07T02:29:03.205Z,99.75
2023-03-07T02:30:02.349Z,99.75
2023-03-07T02:31:03.355Z,99.75
2023-03-07T02:32:02.415Z,99.75
2023-03-07T02:33:02.417Z,99.75
2023-03-07T02:34:02.336Z,99.65
2023-03-07T02:35:02.299Z,99.54
2023-03-07T02:36:02.345Z,99.54
2023-03-07T02:37:03.249Z,99.54
2023-03-07T02:38:02.255Z,99.65
2023-03-07T02:39:02.317Z,99.65
2023-03-07T02:40:02.237Z,99.75
2023-03-07T02:41:02.217Z,99.75
2023-03-07T02:42:02.580Z,99.75
2023-03-07T02:43:02.608Z,99.85
2023-03-07T02:44:02.180Z,99.85
2023-03-07T02:45:02.203Z,99.85
2023-03-07T02:46:02.214Z,99.85
2023-03-07T02:47:02.172Z,99.96
2023-03-07T02:48:02.109Z,99.96
2023-03-07T02:49:02.240Z,99.96
2023-03-07T02:50:02.107Z,99.96
2023-03-07T02:51:02.103Z,99.96
2023-03-07T02:52:02.068Z,99.99
2023-03-07T02:53:02.060Z,99.99
2023-03-07T02:54:02.020Z,99.99
2023-03-07T02:55:03.155Z,99.99
2023-03-07T02:56:02.956Z,99.99
2023-03-07T02:57:02.123Z,99.99
2023-03-07T02:58:02.590Z,99.99
2023-03-07T02:59:01.994Z,99.99
2023-03-07T03:00:02.170Z,99.99
2023-03-07T03:01:02.936Z,99.99
2023-03-07T03:02:01.937Z,99.99
2023-03-07T03:03:02.328Z,99.99
2023-03-07T03:04:02.800Z,99.99
2023-03-07T03:05:02.035Z,99.99
2023-03-07T03:06:03.126Z,99.99
2023-03-07T03:07:02.022Z,99.99
2023-03-07T03:08:01.875Z,99.99
2023-03-07T03:09:01.870Z,99.99
2023-03-07T03:10:02.428Z,99.99
2023-03-07T03:11:02.702Z,99.99
2023-03-07T03:12:03.075Z,99.99
2023-03-07T03:13:01.866Z,99.99
2023-03-07T03:14:01.829Z,99.99
2023-03-07T03:15:02.787Z,99.99
2023-03-07T03:16:01.759Z,99.99
2023-03-07T03:17:01.769Z,99.99
2023-03-07T03:18:01.740Z,99.99
2023-03-07T03:19:02.912Z,99.99
2023-03-07T03:20:02.271Z,99.99
2023-03-07T03:21:01.950Z,99.99
2023-03-07T03:22:01.780Z,99.99
2023-03-07T03:23:01.691Z,99.99
2023-03-07T03:24:01.659Z,99.99
2023-03-07T03:25:02.841Z,99.99
2023-03-07T03:26:01.680Z,99.99
2023-03-07T03:27:02.372Z,99.99
2023-03-07T03:28:01.651Z,99.99
2023-03-07T03:29:01.611Z,99.99
2023-03-07T03:30:01.593Z,99.99
2023-03-07T03:31:01.626Z,99.99
2023-03-07T03:32:01.588Z,99.99
2023-03-07T03:33:01.684Z,99.99
2023-03-07T03:34:01.541Z,99.99
2023-03-07T03:35:01.563Z,99.99
2023-03-07T03:36:01.899Z,99.99
2023-03-07T03:37:01.872Z,99.99
2023-03-07T03:38:01.511Z,99.99
2023-03-07T03:39:01.885Z,99.99
2023-03-07T03:40:01.471Z,99.99
2023-03-07T03:41:01.475Z,99.99
2023-03-07T03:42:02.402Z,99.99
2023-03-07T03:43:01.453Z,99.99
2023-03-07T03:44:01.452Z,99.99
2023-03-07T03:45:01.411Z,99.99
2023-03-07T03:46:01.399Z,99.99
2023-03-07T03:47:02.264Z,99.99
2023-03-07T03:48:01.530Z,99.99
2023-03-07T03:49:01.362Z,99.99
2023-03-07T03:50:01.341Z,99.99
2023-03-07T03:51:01.386Z,99.99
2023-03-07T03:52:01.332Z,99.99
2023-03-07T03:53:01.679Z,99.99
2023-03-07T03:54:01.293Z,99.99
2023-03-07T03:55:01.315Z,99.99
2023-03-07T03:56:01.283Z,99.99
2023-03-07T03:57:01.263Z,99.99
2023-03-07T03:58:02.063Z,99.99
2023-03-07T03:59:01.731Z,99.99
2023-03-07T04:00:02.045Z,99.99
2023-03-07T04:01:01.284Z,99.99
2023-03-07T04:02:01.309Z,99.99
2023-03-07T04:03:01.400Z,99.99
2023-03-07T04:04:01.300Z,99.99
2023-03-07T04:05:01.204Z,99.99
2023-03-07T04:06:01.187Z,99.99
2023-03-07T04:07:01.173Z,99.99
2023-03-07T04:08:01.128Z,99.99
2023-03-07T04:09:01.251Z,99.99
2023-03-07T04:10:01.120Z,99.99
2023-03-07T04:11:01.085Z,99.99
2023-03-07T04:12:01.513Z,99.99
2023-03-07T04:13:01.095Z,99.99
2023-03-07T04:14:01.046Z,99.99
2023-03-07T04:15:01.057Z,99.99
2023-03-07T04:16:01.034Z,99.99
2023-03-07T04:17:01.926Z,99.99
2023-03-07T04:18:01.174Z,99.99
2023-03-07T04:19:01.014Z,99.99
2023-03-07T04:20:01.080Z,99.99
2023-03-07T04:21:01.111Z,99.99
2023-03-07T04:22:01.217Z,99.99
2023-03-07T04:23:01.311Z,99.99
2023-03-07T04:24:01.142Z,99.99
2023-03-07T04:25:00.925Z,99.99
2023-03-07T04:26:00.952Z,99.99
2023-03-07T04:27:00.971Z,99.99
2023-03-07T04:28:00.852Z,99.99
2023-03-07T04:29:00.957Z,99.99
2023-03-07T04:30:00.839Z,99.99
2023-03-07T04:31:01.623Z,99.99
2023-03-07T04:32:01.174Z,99.99
2023-03-07T04:33:00.815Z,99.99
2023-03-07T04:34:01.169Z,99.99
2023-03-07T04:35:01.340Z,99.99
2023-03-07T04:36:00.818Z,99.99
2023-03-07T04:37:00.814Z,99.99
2023-03-07T04:38:00.878Z,99.99
2023-03-07T04:39:00.736Z,99.99
2023-03-07T04:40:00.689Z,99.99
2023-03-07T04:41:00.722Z,99.99
2023-03-07T04:42:00.763Z,99.99
2023-03-07T04:43:01.895Z,99.99
2023-03-07T04:44:01.911Z,99.99
2023-03-07T04:45:03.900Z,99.99
2023-03-07T04:46:00.639Z,99.99
2023-03-07T04:47:01.622Z,99.99
2023-03-07T04:48:00.591Z,99.99
2023-03-07T04:49:00.663Z,99.99
2023-03-07T04:50:00.672Z,99.99
2023-03-07T04:51:00.564Z,99.99
2023-03-07T04:52:00.568Z,99.99
2023-03-07T04:53:00.541Z,99.99
2023-03-07T04:54:00.520Z,99.99
2023-03-07T04:55:00.571Z,99.99
2023-03-07T04:56:00.538Z,99.94
2023-03-07T04:57:01.497Z,99.99
2023-03-07T04:58:00.527Z,99.99
2023-03-07T04:59:00.527Z,99.99
2023-03-07T05:00:00.481Z,99.99
2023-03-07T05:01:00.535Z,99.99
2023-03-07T05:02:00.437Z,99.99
2023-03-07T05:03:01.622Z,99.99
2023-03-07T05:04:00.946Z,99.99
2023-03-07T05:05:00.395Z,99.99
2023-03-07T05:06:00.357Z,99.99
2023-03-07T05:07:01.837Z,99.99
2023-03-07T05:08:00.349Z,99.99
2023-03-07T05:09:01.555Z,99.99
2023-03-07T05:10:00.365Z,99.99
2023-03-07T05:11:00.293Z,99.99
2023-03-07T05:12:00.327Z,99.99
2023-03-07T05:13:00.448Z,99.99
2023-03-07T05:14:01.088Z,99.99
2023-03-07T05:15:01.496Z,99.99
2023-03-07T05:16:00.351Z,99.99
2023-03-07T05:17:00.276Z,99.99
2023-03-07T05:18:00.237Z,99.99
2023-03-07T05:19:00.328Z,99.99
2023-03-07T05:20:00.242Z,99.99
2023-03-07T05:21:01.425Z,99.99
2023-03-07T05:22:01.333Z,99.99
2023-03-07T05:23:00.496Z,99.99
2023-03-07T05:24:00.263Z,99.99
2023-03-07T05:25:00.197Z,99.99
2023-03-07T05:26:00.165Z,99.99
2023-03-07T05:27:00.376Z,99.99
2023-03-07T05:28:00.104Z,99.99
2023-03-07T05:29:00.123Z,99.99
2023-03-07T05:30:01.070Z,99.99
2023-03-07T05:31:00.270Z,99.99
2023-03-07T05:32:00.073Z,99.99
2023-03-07T05:33:00.139Z,99.99
2023-03-07T05:34:00.032Z,99.99
2023-03-07T05:35:01.114Z,99.94
2023-03-07T05:36:00.268Z,99.84
2023-03-07T05:37:00.918Z,99.73
2023-03-07T05:38:00.925Z,99.52
2023-03-07T05:39:00.117Z,99.42
2023-03-07T05:39:59.977Z,99.32
2023-03-07T05:41:01.040Z,99.11
2023-03-07T05:41:59.937Z,98.94
2023-03-07T05:43:00.103Z,98.84
2023-03-07T05:44:00.761Z,99.05
2023-03-07T05:45:00.675Z,99.26
2023-03-07T05:46:00.013Z,99.36
2023-03-07T05:47:00.195Z,99.51
2023-03-07T05:48:00.876Z,99.62
2023-03-07T05:48:59.871Z,99.72
2023-03-07T05:49:59.859Z,99.72
2023-03-07T05:50:59.918Z,99.62
2023-03-07T05:51:59.854Z,99.36
2023-03-07T05:53:00.922Z,99.36
2023-03-07T05:53:59.835Z,99.46
2023-03-07T05:54:59.841Z,99.57
2023-03-07T05:55:59.820Z,99.72
2023-03-07T05:56:59.867Z,99.62
2023-03-07T05:57:59.712Z,98.63
2023-03-07T05:59:00.109Z,98.43
2023-03-07T05:59:59.743Z,98.53
2023-03-07T06:00:59.710Z,98.43
2023-03-07T06:01:59.854Z,98.11
2023-03-07T06:02:59.722Z,98.32
2023-03-07T06:03:59.686Z,98.47
2023-03-07T06:04:59.639Z,98.47
2023-03-07T06:06:00.684Z,98.26
2023-03-07T06:06:59.633Z,98.26
2023-03-07T06:08:00.501Z,98.26
2023-03-07T06:09:00.491Z,98.47
2023-03-07T06:09:59.645Z,98.47
2023-03-07T06:11:00.562Z,98.57
2023-03-07T06:11:59.734Z,98.62
2023-03-07T06:13:00.536Z,98.62
2023-03-07T06:13:59.536Z,98.52
2023-03-07T06:14:59.657Z,98.20
2023-03-07T06:15:59.695Z,98.31
2023-03-07T06:17:00.650Z,98.62
2023-03-07T06:18:00.553Z,98.62
2023-03-07T06:19:00.482Z,98.62
2023-03-07T06:19:59.499Z,98.62
2023-03-07T06:20:59.712Z,98.83
2023-03-07T06:22:00.332Z,98.93
2023-03-07T06:22:59.501Z,98.93
2023-03-07T06:23:59.421Z,99.08
2023-03-07T06:24:59.493Z,99.08
2023-03-07T06:25:59.406Z,99.08
2023-03-07T06:26:59.470Z,99.08
2023-03-07T06:27:59.467Z,99.18
2023-03-07T06:28:59.395Z,99.08
2023-03-07T06:29:59.337Z,99.08
2023-03-07T06:30:59.584Z,99.08
2023-03-07T06:31:59.397Z,99.08
2023-03-07T06:32:59.410Z,99.18
2023-03-07T06:33:59.397Z,99.29
2023-03-07T06:34:59.267Z,99.18
2023-03-07T06:36:00.336Z,98.97
2023-03-07T06:37:00.217Z,98.72
2023-03-07T06:37:59.384Z,98.52
2023-03-07T06:38:59.207Z,98.52
2023-03-07T06:39:59.397Z,98.31
2023-03-07T06:40:59.319Z,98.31
2023-03-07T06:42:00.321Z,98.31
2023-03-07T06:42:59.200Z,98.31
2023-03-07T06:43:59.154Z,98.10
2023-03-07T06:44:59.139Z,97.89
2023-03-07T06:45:59.276Z,97.78
2023-03-07T06:47:00.331Z,97.58
2023-03-07T06:48:00.244Z,97.47
2023-03-07T06:48:59.415Z,97.33
2023-03-07T06:49:59.294Z,97.33
2023-03-07T06:51:00.034Z,97.33
2023-03-07T06:51:59.092Z,97.43
2023-03-07T06:53:00.276Z,97.33
2023-03-07T06:53:59.068Z,97.22
2023-03-07T06:54:59.020Z,97.12
2023-03-07T06:55:58.998Z,96.80
2023-03-07T06:56:58.986Z,96.18
2023-03-07T06:57:58.977Z,96.28
2023-03-07T06:59:00.219Z,96.49
2023-03-07T06:59:59.029Z,96.39
2023-03-07T07:00:59.646Z,96.39
2023-03-07T07:01:59.082Z,96.49
2023-03-07T07:02:59.989Z,96.59
2023-03-07T07:03:58.900Z,96.49
2023-03-07T07:05:01.306Z,96.34
2023-03-07T07:05:59.068Z,96.34
2023-03-07T07:06:59.961Z,95.72
2023-03-07T07:07:59.087Z,95.93
2023-03-07T07:08:58.854Z,95.51
2023-03-07T07:09:58.893Z,95.30
2023-03-07T07:10:58.835Z,95.57
2023-03-07T07:11:58.782Z,95.78
2023-03-07T07:12:58.822Z,95.57
2023-03-07T07:13:59.796Z,95.57
2023-03-07T07:14:59.698Z,95.89
2023-03-07T07:15:58.752Z,95.78
2023-03-07T07:16:59.419Z,95.78
2023-03-07T07:17:58.801Z,95.67
2023-03-07T07:18:59.831Z,95.89
2023-03-07T07:19:58.832Z,95.26
2023-03-07T07:20:58.795Z,95.15
2023-03-07T07:21:58.699Z,95.15
2023-03-07T07:22:58.641Z,95.05
2023-03-07T07:23:59.862Z,94.59
2023-03-07T07:24:58.896Z,94.38
2023-03-07T07:25:58.620Z,94.70
2023-03-07T07:26:58.786Z,94.70
2023-03-07T07:27:58.629Z,93.87
2023-03-07T07:28:59.371Z,93.87
2023-03-07T07:29:58.620Z,94.28
2023-03-07T07:30:58.629Z,94.28
2023-03-07T07:31:58.973Z,94.34
2023-03-07T07:32:59.685Z,94.45
2023-03-07T07:33:58.601Z,94.55
2023-03-07T07:34:59.314Z,94.45
2023-03-07T07:35:58.561Z,94.45
2023-03-07T07:36:58.518Z,94.76
2023-03-07T07:37:58.493Z,94.86
2023-03-07T07:38:59.595Z,94.65
2023-03-07T07:39:58.486Z,94.34
2023-03-07T07:40:59.256Z,94.45
2023-03-07T07:41:58.435Z,94.13
2023-03-07T07:42:59.343Z,93.51
2023-03-07T07:43:58.417Z,93.93
2023-03-07T07:44:58.359Z,93.51
2023-03-07T07:45:58.571Z,93.20
2023-03-07T07:46:59.189Z,93.41
2023-03-07T07:47:58.433Z,93.62
2023-03-07T07:48:59.429Z,93.72
2023-03-07T07:49:58.561Z,93.51
2023-03-07T07:50:58.319Z,93.37
2023-03-07T07:51:58.305Z,93.47
2023-03-07T07:52:58.296Z,93.47
2023-03-07T07:53:58.295Z,93.47
2023-03-07T07:54:59.405Z,92.84
2023-03-07T07:55:58.399Z,92.94
2023-03-07T07:56:58.296Z,92.74
2023-03-07T07:57:58.556Z,92.74
2023-03-07T07:58:59.163Z,92.84
2023-03-07T07:59:58.352Z,92.32
2023-03-07T08:00:58.169Z,92.22
2023-03-07T08:01:58.621Z,92.32
2023-03-07T08:02:58.389Z,92.63
2023-03-07T08:03:58.156Z,92.43
2023-03-07T08:04:58.120Z,92.38
2023-03-07T08:05:58.901Z,91.97
2023-03-07T08:06:58.239Z,91.86
2023-03-07T08:07:58.271Z,91.76
2023-03-07T08:08:58.125Z,92.18
2023-03-07T08:09:58.534Z,92.18
2023-03-07T08:10:58.044Z,92.07
2023-03-07T08:11:59.034Z,91.55
2023-03-07T08:12:58.047Z,91.62
2023-03-07T08:13:58.027Z,91.20
2023-03-07T08:14:58.031Z,90.79
2023-03-07T08:15:59.057Z,90.27
2023-03-07T08:16:58.876Z,90.37
2023-03-07T08:17:57.940Z,89.96
2023-03-07T08:18:59.196Z,91.00
2023-03-07T08:20:00.268Z,90.17
2023-03-07T08:20:58.040Z,89.03
2023-03-07T08:21:58.056Z,89.13
2023-03-07T08:22:58.008Z,89.13
2023-03-07T08:23:57.886Z,89.34
2023-03-07T08:24:58.029Z,88.51
2023-03-07T08:25:59.029Z,87.99
2023-03-07T08:26:58.943Z,88.20
2023-03-07T08:27:57.885Z,88.30
2023-03-07T08:28:57.861Z,89.03
2023-03-07T08:29:57.826Z,88.51
2023-03-07T08:30:57.864Z,88.71
2023-03-07T08:31:57.791Z,88.51
2023-03-07T08:32:57.768Z,88.61
2023-03-07T08:33:58.033Z,87.37
2023-03-07T08:34:57.798Z,87.37
2023-03-07T08:35:58.616Z,87.78
2023-03-07T08:36:57.762Z,87.16
2023-03-07T08:37:58.908Z,86.95
2023-03-07T08:38:57.688Z,87.68
2023-03-07T08:39:57.874Z,88.51
2023-03-07T08:40:58.147Z,86.95
2023-03-07T08:41:58.018Z,86.64
2023-03-07T08:42:57.624Z,86.22
2023-03-07T08:43:57.663Z,86.54
2023-03-07T08:44:57.642Z,86.95
2023-03-07T08:45:58.664Z,86.74
2023-03-07T08:46:57.600Z,87.37
2023-03-07T08:47:57.572Z,86.95
2023-03-07T08:48:58.344Z,87.78
2023-03-07T08:49:57.661Z,87.57
2023-03-07T08:50:57.614Z,87.57
2023-03-07T08:51:57.549Z,87.16
2023-03-07T08:52:57.658Z,87.16
2023-03-07T08:53:57.499Z,86.85
2023-03-07T08:54:58.292Z,85.91
2023-03-07T08:55:57.484Z,85.91
2023-03-07T08:56:58.612Z,85.39
2023-03-07T08:57:57.520Z,86.54
2023-03-07T08:58:57.670Z,86.85
2023-03-07T08:59:57.454Z,87.05
2023-03-07T09:00:57.457Z,87.57
2023-03-07T09:01:58.669Z,87.16
2023-03-07T09:02:57.383Z,86.74
2023-03-07T09:03:57.372Z,86.22
2023-03-07T09:04:57.653Z,86.74
2023-03-07T09:05:57.672Z,86.54
2023-03-07T09:06:58.123Z,85.71
2023-03-07T09:07:57.492Z,85.71
2023-03-07T09:08:57.677Z,86.49
2023-03-07T09:09:57.575Z,86.60
2023-03-07T09:10:57.460Z,86.18
2023-03-07T09:11:57.257Z,86.39
2023-03-07T09:12:57.553Z,86.02
2023-03-07T09:13:58.522Z,85.91
2023-03-07T09:14:58.451Z,85.81
2023-03-07T09:15:57.377Z,86.43
2023-03-07T09:16:58.834Z,86.74
2023-03-07T09:17:57.649Z,86.64
2023-03-07T09:18:57.432Z,86.95
2023-03-07T09:19:57.177Z,86.95
2023-03-07T09:20:58.354Z,86.74
2023-03-07T09:21:57.151Z,87.05
2023-03-07T09:22:58.156Z,87.47
2023-03-07T09:23:57.199Z,88.09
2023-03-07T09:24:57.145Z,87.68
2023-03-07T09:25:58.876Z,87.92
2023-03-07T09:26:57.102Z,88.44
2023-03-07T09:27:57.237Z,88.13
2023-03-07T09:28:57.139Z,88.44
2023-03-07T09:29:57.249Z,88.48
2023-03-07T09:30:57.065Z,89.31
2023-03-07T09:31:57.059Z,90.25
2023-03-07T09:32:57.012Z,90.04
2023-03-07T09:33:56.987Z,90.25
2023-03-07T09:34:56.991Z,90.45
2023-03-07T09:35:57.082Z,90.56
2023-03-07T09:36:57.015Z,91.39
2023-03-07T09:37:56.936Z,91.49
2023-03-07T09:38:58.191Z,91.80
2023-03-07T09:39:56.920Z,91.80
2023-03-07T09:40:56.927Z,91.53
2023-03-07T09:41:57.881Z,92.05
2023-03-07T09:42:56.983Z,91.95
2023-03-07T09:43:56.975Z,92.05
2023-03-07T09:44:56.864Z,92.26
2023-03-07T09:45:56.876Z,92.57
2023-03-07T09:46:57.912Z,92.36
2023-03-07T09:47:57.831Z,92.78
2023-03-07T09:48:57.731Z,92.61
2023-03-07T09:49:56.987Z,93.14
2023-03-07T09:50:56.793Z,93.35
2023-03-07T09:51:56.796Z,93.76
2023-03-07T09:52:56.823Z,94.07
2023-03-07T09:53:56.738Z,94.38
2023-03-07T09:54:57.667Z,94.38
2023-03-07T09:55:56.746Z,94.70
2023-03-07T09:56:57.313Z,94.70
2023-03-07T09:57:56.813Z,94.59
2023-03-07T09:58:56.703Z,94.74
2023-03-07T09:59:56.644Z,94.95
2023-03-07T10:00:57.207Z,94.64
2023-03-07T10:01:57.495Z,94.84
2023-03-07T10:02:57.422Z,95.05
2023-03-07T10:03:56.797Z,95.57
2023-03-07T10:04:56.608Z,95.83
2023-03-07T10:05:56.652Z,95.99
2023-03-07T10:06:58.348Z,96.09
2023-03-07T10:07:57.445Z,96.14
2023-03-07T10:08:57.481Z,96.51
2023-03-07T10:09:56.548Z,96.61
2023-03-07T10:10:56.556Z,96.82
2023-03-07T10:11:56.615Z,96.82
2023-03-07T10:12:56.515Z,96.61
2023-03-07T10:13:56.490Z,96.30
2023-03-07T10:14:56.541Z,96.41
2023-03-07T10:15:56.621Z,96.51
2023-03-07T10:16:56.531Z,96.72
2023-03-07T10:17:56.471Z,96.61
2023-03-07T10:18:57.400Z,97.13
2023-03-07T10:19:57.320Z,97.24
2023-03-07T10:20:56.392Z,97.40
2023-03-07T10:21:57.287Z,97.61
2023-03-07T10:22:56.375Z,97.61
2023-03-07T10:23:56.378Z,96.98
2023-03-07T10:24:56.510Z,97.44
2023-03-07T10:25:57.239Z,97.24
2023-03-07T10:26:56.362Z,97.24
2023-03-07T10:27:56.329Z,97.24
2023-03-07T10:28:56.369Z,97.65
2023-03-07T10:29:56.301Z,97.65
2023-03-07T10:30:56.299Z,97.96
2023-03-07T10:31:56.304Z,97.75
2023-03-07T10:32:56.262Z,97.55
2023-03-07T10:33:56.346Z,97.44
2023-03-07T10:34:57.396Z,97.28
2023-03-07T10:35:56.367Z,97.49
2023-03-07T10:37:08.091Z,97.59
2023-03-07T10:37:57.369Z,97.86
2023-03-07T10:38:56.469Z,97.65
2023-03-07T10:39:56.950Z,97.70
2023-03-07T10:40:56.368Z,97.96
2023-03-07T10:41:56.118Z,97.59
2023-03-07T10:42:56.362Z,97.80
2023-03-07T10:43:56.129Z,97.80
2023-03-07T10:44:56.244Z,97.91
2023-03-07T10:45:57.023Z,97.80
2023-03-07T10:46:56.686Z,97.80
2023-03-07T10:47:56.072Z,98.11
2023-03-07T10:48:56.036Z,97.80
2023-03-07T10:49:56.038Z,97.70
2023-03-07T10:50:56.060Z,98.22
2023-03-07T10:51:56.010Z,98.43
2023-03-07T10:52:55.987Z,98.11
2023-03-07T10:53:57.106Z,98.27
2023-03-07T10:54:55.974Z,98.27
2023-03-07T10:55:56.327Z,97.80
2023-03-07T10:56:56.122Z,98.01
2023-03-07T10:57:57.548Z,97.80
2023-03-07T10:58:55.923Z,98.22
2023-03-07T10:59:55.988Z,98.43
2023-03-07T11:00:55.901Z,98.63
2023-03-07T11:01:55.859Z,98.43
2023-03-07T11:02:55.884Z,98.43
2023-03-07T11:03:58.493Z,98.43
2023-03-07T11:04:56.016Z,98.32
2023-03-07T11:05:55.839Z,98.43
2023-03-07T11:06:56.877Z,98.43
2023-03-07T11:07:56.495Z,98.53
2023-03-07T11:08:55.774Z,98.63
2023-03-07T11:09:55.756Z,98.63
2023-03-07T11:10:56.495Z,98.63
2023-03-07T11:11:56.938Z,98.53
2023-03-07T11:12:55.716Z,98.53
2023-03-07T11:13:55.917Z,98.63
2023-03-07T11:14:55.728Z,98.74
2023-03-07T11:16:10.577Z,98.63
2023-03-07T11:16:56.742Z,98.63
2023-03-07T11:17:55.685Z,98.53
2023-03-07T11:18:56.756Z,98.32
2023-03-07T11:19:55.933Z,98.63
2023-03-07T11:20:56.379Z,98.74
2023-03-07T11:21:55.685Z,98.74
2023-03-07T11:22:55.645Z,98.94
2023-03-07T11:23:56.823Z,99.15
2023-03-07T11:24:55.642Z,98.74
2023-03-07T11:25:55.560Z,98.47
2023-03-07T11:26:56.494Z,98.74
2023-03-07T11:27:55.554Z,98.78
2023-03-07T11:28:55.642Z,98.84
2023-03-07T11:29:55.876Z,98.94
2023-03-07T11:30:56.662Z,98.84
2023-03-07T11:31:55.503Z,98.84
2023-03-07T11:32:55.558Z,98.74
2023-03-07T11:33:59.846Z,98.74
2023-03-07T11:34:55.901Z,98.74
2023-03-07T11:35:55.481Z,98.53
2023-03-07T11:36:55.416Z,98.57
2023-03-07T11:37:55.528Z,98.88
2023-03-07T11:38:55.468Z,98.99
2023-03-07T11:39:55.368Z,99.10
2023-03-07T11:40:55.498Z,98.94
2023-03-07T11:41:55.477Z,98.84
2023-03-07T11:42:55.399Z,98.94
2023-03-07T11:43:56.029Z,99.05
2023-03-07T11:44:55.420Z,98.94
2023-03-07T11:45:55.311Z,98.74
2023-03-07T11:46:55.861Z,98.74
2023-03-07T11:47:56.521Z,98.74
2023-03-07T11:48:55.288Z,98.94
2023-03-07T11:49:55.290Z,98.63
2023-03-07T11:50:55.312Z,98.84
2023-03-07T11:51:55.363Z,99.15
2023-03-07T11:52:56.061Z,99.05
2023-03-07T11:53:55.230Z,99.05
2023-03-07T11:54:55.177Z,99.05
2023-03-07T11:55:55.179Z,99.36
2023-03-07T11:56:55.248Z,99.42
2023-03-07T11:57:56.085Z,99.32
2023-03-07T11:58:55.828Z,99.32
2023-03-07T11:59:55.116Z,99.11
2023-03-07T12:00:55.926Z,99.01
2023-03-07T12:01:56.225Z,99.01
2023-03-07T12:02:56.150Z,99.01
2023-03-07T12:03:55.138Z,98.48
2023-03-07T12:04:55.080Z,98.59
2023-03-07T12:05:55.152Z,98.69
2023-03-07T12:06:55.667Z,98.27
2023-03-07T12:07:56.013Z,98.33
2023-03-07T12:08:56.005Z,98.23
2023-03-07T12:09:55.134Z,98.44
2023-03-07T12:10:55.047Z,98.23
2023-03-07T12:11:55.798Z,98.65
2023-03-07T12:12:56.183Z,98.54
2023-03-07T12:13:55.063Z,98.44
2023-03-07T12:14:55.007Z,98.65
2023-03-07T12:15:55.022Z,98.44
2023-03-07T12:16:54.957Z,98.54
2023-03-07T12:17:55.070Z,98.60
2023-03-07T12:18:55.038Z,98.50
2023-03-07T12:19:56.024Z,97.81
2023-03-07T12:20:55.041Z,98.02
2023-03-07T12:21:55.832Z,98.23
2023-03-07T12:22:55.723Z,98.19
2023-03-07T12:23:55.660Z,98.08
2023-03-07T12:24:54.867Z,97.88
2023-03-07T12:25:54.950Z,97.45
2023-03-07T12:26:55.748Z,97.62
2023-03-07T12:27:55.063Z,97.72
2023-03-07T12:28:55.072Z,97.52
2023-03-07T12:29:54.820Z,96.79
2023-03-07T12:30:55.735Z,96.52
2023-03-07T12:31:55.111Z,97.10
2023-03-07T12:32:54.901Z,97.31
2023-03-07T12:33:54.724Z,97.41
2023-03-07T12:34:54.704Z,96.89
2023-03-07T12:35:54.864Z,97.00
2023-03-07T12:36:54.704Z,97.20
2023-03-07T12:37:55.024Z,97.00
2023-03-07T12:38:54.776Z,97.37
2023-03-07T12:39:54.845Z,97.58
2023-03-07T12:40:54.652Z,97.12
2023-03-07T12:41:55.454Z,95.81
2023-03-07T12:42:54.665Z,96.12
2023-03-07T12:43:54.631Z,95.67
2023-03-07T12:44:54.583Z,95.67
2023-03-07T12:45:54.723Z,95.77
2023-03-07T12:46:55.476Z,95.04
2023-03-07T12:47:55.399Z,95.46
2023-03-07T12:48:54.529Z,96.03
2023-03-07T12:49:54.592Z,95.93
2023-03-07T12:50:54.489Z,94.53
2023-03-07T12:51:54.474Z,94.01